MacKay, Idaho
Current Conditions -  °F | °C
As of 2:50 PM on Monday 24 Nov 2014 (Local Time) from KSUN Reporting Station
Scattered Clouds Scattered Clouds  
Wind Chill: 28°   Ceiling: Unl
Heat Index: 36°   Visibility: 10mi
Dew Point: 18°   Wind: 10mph
Humidity: 48%   Direction: 120°ESE
Pressure: 30.33"   Gusts: NA
Location:  43.91°N, 113.61°W
Report Text: KSUN 242150Z 12009KT 10SM FEW050 SCT150 02/M08 A3033
Loading
Personal Weather Stations






























Interactive Weather Map New forecast layout! Learn more

10-Day Weather Forecast

Advertisements
Track Severe Weather on mobile